sensor_id;sensor_type;location;lat;lon;timestamp;temperature;humidity
15617;DHT22;7908;51.688;7.130;2022-12-07T00:01:46;5.50;99.90
15617;DHT22;7908;51.688;7.130;2022-12-07T00:04:17;5.40;99.90
15617;DHT22;7908;51.688;7.130;2022-12-07T00:06:51;5.40;99.90
15617;DHT22;7908;51.688;7.130;2022-12-07T00:09:20;5.40;99.90
15617;DHT22;7908;51.688;7.130;2022-12-07T00:11:52;5.40;99.90
15617;DHT22;7908;51.688;7.130;2022-12-07T00:14:24;5.40;99.90
15617;DHT22;7908;51.688;7.130;2022-12-07T00:16:52;5.40;99.90
15617;DHT22;7908;51.688;7.130;2022-12-07T00:19:24;5.40;99.90
15617;DHT22;7908;51.688;7.130;2022-12-07T00:21:54;5.40;99.90
15617;DHT22;7908;51.688;7.130;2022-12-07T00:24:23;5.40;99.90
15617;DHT22;7908;51.688;7.130;2022-12-07T00:26:51;5.40;99.90
15617;DHT22;7908;51.688;7.130;2022-12-07T00:29:21;5.40;99.90
15617;DHT22;7908;51.688;7.130;2022-12-07T00:31:50;5.40;99.90
15617;DHT22;7908;51.688;7.130;2022-12-07T00:34:20;5.40;99.90
15617;DHT22;7908;51.688;7.130;2022-12-07T00:36:49;5.40;99.90
15617;DHT22;7908;51.688;7.130;2022-12-07T00:39:19;5.40;99.90
15617;DHT22;7908;51.688;7.130;2022-12-07T00:41:48;5.40;99.90
15617;DHT22;7908;51.688;7.130;2022-12-07T00:44:17;5.30;99.90
15617;DHT22;7908;51.688;7.130;2022-12-07T00:46:45;5.30;99.90
15617;DHT22;7908;51.688;7.130;2022-12-07T00:49:14;5.30;99.90
15617;DHT22;7908;51.688;7.130;2022-12-07T00:51:42;5.30;99.90
15617;DHT22;7908;51.688;7.130;2022-12-07T00:54:11;5.30;99.90
15617;DHT22;7908;51.688;7.130;2022-12-07T00:56:41;5.30;99.90
15617;DHT22;7908;51.688;7.130;2022-12-07T00:59:12;5.30;99.90
15617;DHT22;7908;51.688;7.130;2022-12-07T01:01:41;5.30;99.90
15617;DHT22;7908;51.688;7.130;2022-12-07T01:04:10;5.30;99.90
15617;DHT22;7908;51.688;7.130;2022-12-07T01:06:38;5.30;99.90
15617;DHT22;7908;51.688;7.130;2022-12-07T01:09:07;5.30;99.90
15617;DHT22;7908;51.688;7.130;2022-12-07T01:11:36;5.30;99.90
15617;DHT22;7908;51.688;7.130;2022-12-07T01:14:06;5.30;99.90
15617;DHT22;7908;51.688;7.130;2022-12-07T01:16:34;5.20;99.90
15617;DHT22;7908;51.688;7.130;2022-12-07T01:19:03;5.20;99.90
15617;DHT22;7908;51.688;7.130;2022-12-07T01:21:34;5.20;99.90
15617;DHT22;7908;51.688;7.130;2022-12-07T01:24:07;5.20;99.90
15617;DHT22;7908;51.688;7.130;2022-12-07T01:26:37;5.20;99.90
15617;DHT22;7908;51.688;7.130;2022-12-07T01:29:07;5.20;99.90
15617;DHT22;7908;51.688;7.130;2022-12-07T01:31:36;5.20;99.90
15617;DHT22;7908;51.688;7.130;2022-12-07T01:34:05;5.20;99.90
15617;DHT22;7908;51.688;7.130;2022-12-07T01:36:35;5.20;99.90
15617;DHT22;7908;51.688;7.130;2022-12-07T01:39:06;5.20;99.90
15617;DHT22;7908;51.688;7.130;2022-12-07T01:41:37;5.20;99.90
15617;DHT22;7908;51.688;7.130;2022-12-07T01:44:12;5.20;99.90
15617;DHT22;7908;51.688;7.130;2022-12-07T01:46:42;5.20;99.90
15617;DHT22;7908;51.688;7.130;2022-12-07T01:49:14;5.20;99.90
15617;DHT22;7908;51.688;7.130;2022-12-07T01:51:46;5.20;99.90
15617;DHT22;7908;51.688;7.130;2022-12-07T01:54:16;5.20;99.90
15617;DHT22;7908;51.688;7.130;2022-12-07T01:56:49;5.20;99.90
15617;DHT22;7908;51.688;7.130;2022-12-07T01:59:22;5.20;99.90
15617;DHT22;7908;51.688;7.130;2022-12-07T02:01:54;5.20;99.90
15617;DHT22;7908;51.688;7.130;2022-12-07T02:04:23;5.20;99.90
15617;DHT22;7908;51.688;7.130;2022-12-07T02:06:53;5.10;99.90
15617;DHT22;7908;51.688;7.130;2022-12-07T02:09:25;5.10;99.90
15617;DHT22;7908;51.688;7.130;2022-12-07T02:11:54;5.20;99.90
15617;DHT22;7908;51.688;7.130;2022-12-07T02:14:24;5.10;99.90
15617;DHT22;7908;51.688;7.130;2022-12-07T02:17:03;5.10;99.90
15617;DHT22;7908;51.688;7.130;2022-12-07T02:23:11;5.00;99.90
15617;DHT22;7908;51.688;7.130;2022-12-07T02:26:03;5.00;99.90
15617;DHT22;7908;51.688;7.130;2022-12-07T02:28:55;4.90;99.90
15617;DHT22;7908;51.688;7.130;2022-12-07T02:31:29;4.90;99.90
15617;DHT22;7908;51.688;7.130;2022-12-07T02:34:05;4.90;99.90
15617;DHT22;7908;51.688;7.130;2022-12-07T02:36:39;4.80;99.90
15617;DHT22;7908;51.688;7.130;2022-12-07T02:39:16;4.80;99.90
15617;DHT22;7908;51.688;7.130;2022-12-07T02:41:47;4.80;99.90
15617;DHT22;7908;51.688;7.130;2022-12-07T02:44:20;4.70;99.90
15617;DHT22;7908;51.688;7.130;2022-12-07T02:46:52;4.60;99.90
15617;DHT22;7908;51.688;7.130;2022-12-07T02:49:22;4.50;99.90
15617;DHT22;7908;51.688;7.130;2022-12-07T02:51:52;4.50;99.90
15617;DHT22;7908;51.688;7.130;2022-12-07T02:54:24;4.50;99.90
15617;DHT22;7908;51.688;7.130;2022-12-07T02:56:56;4.50;99.90
15617;DHT22;7908;51.688;7.130;2022-12-07T02:59:36;4.50;99.90
15617;DHT22;7908;51.688;7.130;2022-12-07T03:02:18;4.50;99.90
15617;DHT22;7908;51.688;7.130;2022-12-07T03:04:56;4.40;99.90
15617;DHT22;7908;51.688;7.130;2022-12-07T03:07:35;4.30;99.90
15617;DHT22;7908;51.688;7.130;2022-12-07T03:10:14;4.30;99.90
15617;DHT22;7908;51.688;7.130;2022-12-07T03:12:58;4.30;99.90
15617;DHT22;7908;51.688;7.130;2022-12-07T03:15:33;4.30;99.90
15617;DHT22;7908;51.688;7.130;2022-12-07T03:18:04;4.30;99.90
15617;DHT22;7908;51.688;7.130;2022-12-07T03:20:35;4.20;99.90
15617;DHT22;7908;51.688;7.130;2022-12-07T03:23:08;4.20;99.90
15617;DHT22;7908;51.688;7.130;2022-12-07T03:25:40;4.20;99.90
15617;DHT22;7908;51.688;7.130;2022-12-07T03:28:14;4.20;99.90
15617;DHT22;7908;51.688;7.130;2022-12-07T03:30:49;4.20;99.90
15617;DHT22;7908;51.688;7.130;2022-12-07T03:33:22;4.20;99.90
15617;DHT22;7908;51.688;7.130;2022-12-07T03:36:00;4.10;99.90
15617;DHT22;7908;51.688;7.130;2022-12-07T03:38:32;4.10;99.90
15617;DHT22;7908;51.688;7.130;2022-12-07T03:41:05;4.10;99.90
15617;DHT22;7908;51.688;7.130;2022-12-07T03:43:36;4.00;99.90
15617;DHT22;7908;51.688;7.130;2022-12-07T03:46:14;4.00;99.90
15617;DHT22;7908;51.688;7.130;2022-12-07T03:48:53;3.90;99.90
15617;DHT22;7908;51.688;7.130;2022-12-07T03:51:28;3.90;99.90
15617;DHT22;7908;51.688;7.130;2022-12-07T03:54:07;3.90;99.90
15617;DHT22;7908;51.688;7.130;2022-12-07T03:56:37;3.80;99.90
15617;DHT22;7908;51.688;7.130;2022-12-07T03:59:07;3.80;99.90
15617;DHT22;7908;51.688;7.130;2022-12-07T04:01:37;3.80;99.90
15617;DHT22;7908;51.688;7.130;2022-12-07T04:04:05;3.80;99.90
15617;DHT22;7908;51.688;7.130;2022-12-07T04:06:34;3.70;99.90
15617;DHT22;7908;51.688;7.130;2022-12-07T04:09:02;3.70;99.90
15617;DHT22;7908;51.688;7.130;2022-12-07T04:11:31;3.70;99.90
15617;DHT22;7908;51.688;7.130;2022-12-07T04:13:59;3.70;99.90
15617;DHT22;7908;51.688;7.130;2022-12-07T04:16:46;3.70;99.90
15617;DHT22;7908;51.688;7.130;2022-12-07T04:19:16;3.70;99.90
15617;DHT22;7908;51.688;7.130;2022-12-07T04:21:45;3.70;99.90
15617;DHT22;7908;51.688;7.130;2022-12-07T04:24:15;3.80;99.90
15617;DHT22;7908;51.688;7.130;2022-12-07T04:26:44;3.80;99.90
15617;DHT22;7908;51.688;7.130;2022-12-07T04:29:13;3.80;99.90
15617;DHT22;7908;51.688;7.130;2022-12-07T04:31:42;3.80;99.90
15617;DHT22;7908;51.688;7.130;2022-12-07T04:34:13;3.90;99.90
15617;DHT22;7908;51.688;7.130;2022-12-07T04:36:42;3.80;99.90
15617;DHT22;7908;51.688;7.130;2022-12-07T04:39:19;3.90;99.90
15617;DHT22;7908;51.688;7.130;2022-12-07T04:41:48;3.90;99.90
15617;DHT22;7908;51.688;7.130;2022-12-07T04:44:17;3.90;99.90
15617;DHT22;7908;51.688;7.130;2022-12-07T04:46:46;3.90;99.90
15617;DHT22;7908;51.688;7.130;2022-12-07T04:49:18;3.90;99.90
15617;DHT22;7908;51.688;7.130;2022-12-07T04:51:47;3.90;99.90
15617;DHT22;7908;51.688;7.130;2022-12-07T04:54:17;3.90;99.90
15617;DHT22;7908;51.688;7.130;2022-12-07T04:56:45;3.90;99.90
15617;DHT22;7908;51.688;7.130;2022-12-07T04:59:15;3.90;99.90
15617;DHT22;7908;51.688;7.130;2022-12-07T05:01:43;3.80;99.90
15617;DHT22;7908;51.688;7.130;2022-12-07T05:04:12;3.80;99.90
15617;DHT22;7908;51.688;7.130;2022-12-07T05:06:44;3.80;99.90
15617;DHT22;7908;51.688;7.130;2022-12-07T05:09:13;3.80;99.90
15617;DHT22;7908;51.688;7.130;2022-12-07T05:11:41;3.80;99.90
15617;DHT22;7908;51.688;7.130;2022-12-07T05:14:12;3.80;99.90
15617;DHT22;7908;51.688;7.130;2022-12-07T05:16:41;3.80;99.90
15617;DHT22;7908;51.688;7.130;2022-12-07T05:19:10;3.80;99.90
15617;DHT22;7908;51.688;7.130;2022-12-07T05:21:39;3.90;99.90
15617;DHT22;7908;51.688;7.130;2022-12-07T05:24:11;3.90;99.90
15617;DHT22;7908;51.688;7.130;2022-12-07T05:26:40;3.90;99.90
15617;DHT22;7908;51.688;7.130;2022-12-07T05:29:12;3.90;99.90
15617;DHT22;7908;51.688;7.130;2022-12-07T05:31:40;4.00;99.90
15617;DHT22;7908;51.688;7.130;2022-12-07T05:34:11;4.00;99.90
15617;DHT22;7908;51.688;7.130;2022-12-07T05:36:39;3.90;99.90
15617;DHT22;7908;51.688;7.130;2022-12-07T05:39:10;3.90;99.90
15617;DHT22;7908;51.688;7.130;2022-12-07T05:41:38;3.90;99.90
15617;DHT22;7908;51.688;7.130;2022-12-07T05:44:24;3.90;99.90
15617;DHT22;7908;51.688;7.130;2022-12-07T05:46:53;3.90;99.90
15617;DHT22;7908;51.688;7.130;2022-12-07T05:49:22;3.80;99.90
15617;DHT22;7908;51.688;7.130;2022-12-07T05:51:50;3.80;99.90
15617;DHT22;7908;51.688;7.130;2022-12-07T05:54:21;3.80;99.90
15617;DHT22;7908;51.688;7.130;2022-12-07T05:56:50;3.90;99.90
15617;DHT22;7908;51.688;7.130;2022-12-07T05:59:19;3.90;99.90
15617;DHT22;7908;51.688;7.130;2022-12-07T06:01:49;3.90;99.90
15617;DHT22;7908;51.688;7.130;2022-12-07T06:04:19;3.90;99.90
15617;DHT22;7908;51.688;7.130;2022-12-07T06:06:50;3.90;99.90
15617;DHT22;7908;51.688;7.130;2022-12-07T06:09:22;3.90;99.90
15617;DHT22;7908;51.688;7.130;2022-12-07T06:11:50;3.90;99.90
15617;DHT22;7908;51.688;7.130;2022-12-07T06:14:37;3.90;99.90
15617;DHT22;7908;51.688;7.130;2022-12-07T06:17:06;3.90;99.90
15617;DHT22;7908;51.688;7.130;2022-12-07T06:19:34;3.90;99.90
15617;DHT22;7908;51.688;7.130;2022-12-07T06:22:03;3.80;99.90
15617;DHT22;7908;51.688;7.130;2022-12-07T06:24:33;3.80;99.90
15617;DHT22;7908;51.688;7.130;2022-12-07T06:27:02;3.80;99.90
15617;DHT22;7908;51.688;7.130;2022-12-07T06:29:31;3.80;99.90
15617;DHT22;7908;51.688;7.130;2022-12-07T06:32:00;3.80;99.90
15617;DHT22;7908;51.688;7.130;2022-12-07T06:34:28;3.80;99.90
15617;DHT22;7908;51.688;7.130;2022-12-07T06:36:57;3.80;99.90
15617;DHT22;7908;51.688;7.130;2022-12-07T06:39:27;3.70;99.90
15617;DHT22;7908;51.688;7.130;2022-12-07T06:42:00;3.70;99.90
15617;DHT22;7908;51.688;7.130;2022-12-07T06:44:29;3.70;99.90
15617;DHT22;7908;51.688;7.130;2022-12-07T06:46:57;3.70;99.90
15617;DHT22;7908;51.688;7.130;2022-12-07T06:49:46;3.60;99.90
15617;DHT22;7908;51.688;7.130;2022-12-07T06:52:14;3.60;99.90
15617;DHT22;7908;51.688;7.130;2022-12-07T06:54:43;3.60;99.90
15617;DHT22;7908;51.688;7.130;2022-12-07T06:57:13;3.60;99.90
15617;DHT22;7908;51.688;7.130;2022-12-07T06:59:41;3.60;99.90
15617;DHT22;7908;51.688;7.130;2022-12-07T07:02:10;3.50;99.90
15617;DHT22;7908;51.688;7.130;2022-12-07T07:04:39;3.50;99.90
15617;DHT22;7908;51.688;7.130;2022-12-07T07:07:08;3.50;99.90
15617;DHT22;7908;51.688;7.130;2022-12-07T07:09:36;3.40;99.90
15617;DHT22;7908;51.688;7.130;2022-12-07T07:12:05;3.40;99.90
15617;DHT22;7908;51.688;7.130;2022-12-07T07:14:35;3.40;99.90
15617;DHT22;7908;51.688;7.130;2022-12-07T07:17:03;3.40;99.90
15617;DHT22;7908;51.688;7.130;2022-12-07T07:19:32;3.30;99.90
15617;DHT22;7908;51.688;7.130;2022-12-07T07:22:00;3.30;99.90
15617;DHT22;7908;51.688;7.130;2022-12-07T07:24:29;3.20;99.90
15617;DHT22;7908;51.688;7.130;2022-12-07T07:26:58;3.20;99.90
15617;DHT22;7908;51.688;7.130;2022-12-07T07:29:26;3.20;99.90
15617;DHT22;7908;51.688;7.130;2022-12-07T07:32:00;3.20;99.90
15617;DHT22;7908;51.688;7.130;2022-12-07T07:34:32;3.20;99.90
15617;DHT22;7908;51.688;7.130;2022-12-07T07:37:01;3.20;99.90
15617;DHT22;7908;51.688;7.130;2022-12-07T07:39:30;3.20;99.90
15617;DHT22;7908;51.688;7.130;2022-12-07T07:41:58;3.20;99.90
15617;DHT22;7908;51.688;7.130;2022-12-07T07:44:27;3.20;99.90
15617;DHT22;7908;51.688;7.130;2022-12-07T07:47:02;3.20;99.90
15617;DHT22;7908;51.688;7.130;2022-12-07T07:49:31;3.20;99.90
15617;DHT22;7908;51.688;7.130;2022-12-07T07:52:00;3.10;99.90
15617;DHT22;7908;51.688;7.130;2022-12-07T07:54:29;3.20;99.90
15617;DHT22;7908;51.688;7.130;2022-12-07T07:56:58;3.20;99.90
15617;DHT22;7908;51.688;7.130;2022-12-07T07:59:26;3.20;99.90
15617;DHT22;7908;51.688;7.130;2022-12-07T08:01:55;3.20;99.90
15617;DHT22;7908;51.688;7.130;2022-12-07T08:04:29;3.20;99.90
15617;DHT22;7908;51.688;7.130;2022-12-07T08:06:57;3.10;99.90
15617;DHT22;7908;51.688;7.130;2022-12-07T08:09:26;3.10;99.90
15617;DHT22;7908;51.688;7.130;2022-12-07T08:11:55;3.10;99.90
15617;DHT22;7908;51.688;7.130;2022-12-07T08:14:24;3.10;99.90
15617;DHT22;7908;51.688;7.130;2022-12-07T08:16:55;3.20;99.90
15617;DHT22;7908;51.688;7.130;2022-12-07T08:19:25;3.30;99.90
15617;DHT22;7908;51.688;7.130;2022-12-07T08:21:53;3.30;99.90
15617;DHT22;7908;51.688;7.130;2022-12-07T08:24:24;3.40;99.90
15617;DHT22;7908;51.688;7.130;2022-12-07T08:26:54;3.40;99.90
15617;DHT22;7908;51.688;7.130;2022-12-07T08:29:26;3.40;99.90
15617;DHT22;7908;51.688;7.130;2022-12-07T08:31:54;3.50;99.90
15617;DHT22;7908;51.688;7.130;2022-12-07T08:34:27;3.60;99.90
15617;DHT22;7908;51.688;7.130;2022-12-07T08:36:56;3.60;99.90
15617;DHT22;7908;51.688;7.130;2022-12-07T08:39:25;3.60;99.90
15617;DHT22;7908;51.688;7.130;2022-12-07T08:41:58;3.60;99.90
15617;DHT22;7908;51.688;7.130;2022-12-07T08:44:27;3.70;99.90
15617;DHT22;7908;51.688;7.130;2022-12-07T08:46:58;3.70;99.90
15617;DHT22;7908;51.688;7.130;2022-12-07T08:49:33;3.80;99.90
15617;DHT22;7908;51.688;7.130;2022-12-07T08:52:05;3.80;99.90
15617;DHT22;7908;51.688;7.130;2022-12-07T08:54:35;3.80;99.90
15617;DHT22;7908;51.688;7.130;2022-12-07T08:57:05;3.90;99.90
15617;DHT22;7908;51.688;7.130;2022-12-07T08:59:36;4.00;99.90
15617;DHT22;7908;51.688;7.130;2022-12-07T09:02:08;4.10;99.90
15617;DHT22;7908;51.688;7.130;2022-12-07T09:04:38;4.10;99.90
15617;DHT22;7908;51.688;7.130;2022-12-07T09:07:07;4.20;99.90
15617;DHT22;7908;51.688;7.130;2022-12-07T09:09:36;4.20;99.90
15617;DHT22;7908;51.688;7.130;2022-12-07T09:12:05;4.20;99.90
15617;DHT22;7908;51.688;7.130;2022-12-07T09:14:34;4.20;99.90
15617;DHT22;7908;51.688;7.130;2022-12-07T09:17:08;4.20;99.90
15617;DHT22;7908;51.688;7.130;2022-12-07T09:19:39;4.20;99.90
15617;DHT22;7908;51.688;7.130;2022-12-07T09:22:12;4.20;99.90
15617;DHT22;7908;51.688;7.130;2022-12-07T09:24:41;4.20;99.90
15617;DHT22;7908;51.688;7.130;2022-12-07T09:27:11;4.30;99.90
15617;DHT22;7908;51.688;7.130;2022-12-07T09:29:40;4.30;99.90
15617;DHT22;7908;51.688;7.130;2022-12-07T09:32:09;4.30;99.90
15617;DHT22;7908;51.688;7.130;2022-12-07T09:34:42;4.30;99.90
15617;DHT22;7908;51.688;7.130;2022-12-07T09:37:11;4.30;99.90
15617;DHT22;7908;51.688;7.130;2022-12-07T09:39:40;4.20;99.90
15617;DHT22;7908;51.688;7.130;2022-12-07T09:42:26;4.20;99.90
15617;DHT22;7908;51.688;7.130;2022-12-07T09:44:56;4.20;99.90
15617;DHT22;7908;51.688;7.130;2022-12-07T09:47:26;4.20;99.90
15617;DHT22;7908;51.688;7.130;2022-12-07T09:50:05;4.20;99.90
15617;DHT22;7908;51.688;7.130;2022-12-07T09:52:36;4.20;99.90
15617;DHT22;7908;51.688;7.130;2022-12-07T09:55:11;4.20;99.90
15617;DHT22;7908;51.688;7.130;2022-12-07T09:57:40;4.30;99.90
15617;DHT22;7908;51.688;7.130;2022-12-07T10:00:15;4.30;99.90
15617;DHT22;7908;51.688;7.130;2022-12-07T10:02:52;4.30;99.90
15617;DHT22;7908;51.688;7.130;2022-12-07T10:05:30;4.40;99.90
15617;DHT22;7908;51.688;7.130;2022-12-07T10:08:01;4.50;99.90
15617;DHT22;7908;51.688;7.130;2022-12-07T10:10:31;4.60;99.90
15617;DHT22;7908;51.688;7.130;2022-12-07T10:13:09;4.60;99.90
15617;DHT22;7908;51.688;7.130;2022-12-07T10:15:56;4.70;99.90
15617;DHT22;7908;51.688;7.130;2022-12-07T10:18:34;4.80;99.90
15617;DHT22;7908;51.688;7.130;2022-12-07T10:21:13;4.80;99.90
15617;DHT22;7908;51.688;7.130;2022-12-07T10:23:59;4.80;99.90
15617;DHT22;7908;51.688;7.130;2022-12-07T10:26:33;4.80;99.90
15617;DHT22;7908;51.688;7.130;2022-12-07T10:29:13;4.80;99.90
15617;DHT22;7908;51.688;7.130;2022-12-07T10:31:43;4.90;99.90
15617;DHT22;7908;51.688;7.130;2022-12-07T10:34:22;4.90;99.90
15617;DHT22;7908;51.688;7.130;2022-12-07T10:37:15;5.00;99.90
15617;DHT22;7908;51.688;7.130;2022-12-07T10:39:46;5.00;99.90
15617;DHT22;7908;51.688;7.130;2022-12-07T10:42:19;5.00;99.90
15617;DHT22;7908;51.688;7.130;2022-12-07T10:44:49;5.10;99.90
15617;DHT22;7908;51.688;7.130;2022-12-07T10:47:38;5.10;99.90
15617;DHT22;7908;51.688;7.130;2022-12-07T10:53:37;5.10;99.90
15617;DHT22;7908;51.688;7.130;2022-12-07T10:56:35;5.10;99.90
15617;DHT22;7908;51.688;7.130;2022-12-07T10:59:29;5.10;99.90
15617;DHT22;7908;51.688;7.130;2022-12-07T11:02:19;5.10;99.90
15617;DHT22;7908;51.688;7.130;2022-12-07T11:05:02;5.10;99.90
15617;DHT22;7908;51.688;7.130;2022-12-07T11:07:42;5.10;99.90
15617;DHT22;7908;51.688;7.130;2022-12-07T11:10:18;5.10;99.90
15617;DHT22;7908;51.688;7.130;2022-12-07T11:13:04;5.10;99.90
15617;DHT22;7908;51.688;7.130;2022-12-07T11:16:01;5.20;99.90
15617;DHT22;7908;51.688;7.130;2022-12-07T11:18:40;5.30;99.90
15617;DHT22;7908;51.688;7.130;2022-12-07T11:21:17;5.30;99.90
15617;DHT22;7908;51.688;7.130;2022-12-07T11:23:53;5.30;99.90
15617;DHT22;7908;51.688;7.130;2022-12-07T11:26:40;5.30;99.90
15617;DHT22;7908;51.688;7.130;2022-12-07T11:29:28;5.30;99.90
15617;DHT22;7908;51.688;7.130;2022-12-07T11:32:11;5.20;99.90
15617;DHT22;7908;51.688;7.130;2022-12-07T11:34:52;5.20;99.90
15617;DHT22;7908;51.688;7.130;2022-12-07T11:37:30;5.20;99.90
15617;DHT22;7908;51.688;7.130;2022-12-07T11:40:14;5.20;99.90
15617;DHT22;7908;51.688;7.130;2022-12-07T11:42:51;5.30;99.90
15617;DHT22;7908;51.688;7.130;2022-12-07T11:45:24;5.30;99.90
15617;DHT22;7908;51.688;7.130;2022-12-07T11:47:57;5.40;99.90
15617;DHT22;7908;51.688;7.130;2022-12-07T11:50:33;5.50;99.90
15617;DHT22;7908;51.688;7.130;2022-12-07T11:53:10;5.60;99.90
15617;DHT22;7908;51.688;7.130;2022-12-07T11:55:45;5.60;99.90
15617;DHT22;7908;51.688;7.130;2022-12-07T11:58:29;5.60;99.90
15617;DHT22;7908;51.688;7.130;2022-12-07T12:01:14;5.70;99.90
15617;DHT22;7908;51.688;7.130;2022-12-07T12:03:49;5.70;99.90
15617;DHT22;7908;51.688;7.130;2022-12-07T12:06:20;5.70;99.90
15617;DHT22;7908;51.688;7.130;2022-12-07T12:08:56;5.70;99.90
15617;DHT22;7908;51.688;7.130;2022-12-07T12:12:14;5.70;99.90
15617;DHT22;7908;51.688;7.130;2022-12-07T12:15:27;5.70;99.90
15617;DHT22;7908;51.688;7.130;2022-12-07T12:18:23;5.80;99.90
15617;DHT22;7908;51.688;7.130;2022-12-07T12:20:57;5.90;99.90
15617;DHT22;7908;51.688;7.130;2022-12-07T12:23:39;5.90;99.90
15617;DHT22;7908;51.688;7.130;2022-12-07T12:26:16;6.00;99.90
15617;DHT22;7908;51.688;7.130;2022-12-07T12:28:53;6.00;99.90
15617;DHT22;7908;51.688;7.130;2022-12-07T12:31:37;6.00;99.90
15617;DHT22;7908;51.688;7.130;2022-12-07T12:34:33;6.00;99.90
15617;DHT22;7908;51.688;7.130;2022-12-07T12:37:44;6.00;99.90
15617;DHT22;7908;51.688;7.130;2022-12-07T12:40:43;6.00;99.90
15617;DHT22;7908;51.688;7.130;2022-12-07T12:43:49;6.10;99.90
15617;DHT22;7908;51.688;7.130;2022-12-07T12:46:52;6.10;99.90
15617;DHT22;7908;51.688;7.130;2022-12-07T12:49:36;6.10;99.90
15617;DHT22;7908;51.688;7.130;2022-12-07T12:58:44;6.20;99.90
15617;DHT22;7908;51.688;7.130;2022-12-07T13:01:43;6.20;99.90
15617;DHT22;7908;51.688;7.130;2022-12-07T13:04:50;6.30;99.90
15617;DHT22;7908;51.688;7.130;2022-12-07T13:07:52;6.30;99.90
15617;DHT22;7908;51.688;7.130;2022-12-07T13:13:33;6.30;99.90
15617;DHT22;7908;51.688;7.130;2022-12-07T13:22:49;6.10;99.90
15617;DHT22;7908;51.688;7.130;2022-12-07T13:28:22;6.00;99.90
15617;DHT22;7908;51.688;7.130;2022-12-07T13:31:13;5.90;99.90
15617;DHT22;7908;51.688;7.130;2022-12-07T13:33:48;5.80;99.90
15617;DHT22;7908;51.688;7.130;2022-12-07T13:36:22;5.60;99.90
15617;DHT22;7908;51.688;7.130;2022-12-07T13:38:58;5.60;99.90
15617;DHT22;7908;51.688;7.130;2022-12-07T13:41:29;5.50;99.90
15617;DHT22;7908;51.688;7.130;2022-12-07T13:44:01;5.50;99.90
15617;DHT22;7908;51.688;7.130;2022-12-07T13:46:41;5.50;99.90
15617;DHT22;7908;51.688;7.130;2022-12-07T13:49:20;5.50;99.90
15617;DHT22;7908;51.688;7.130;2022-12-07T13:51:51;5.40;99.90
15617;DHT22;7908;51.688;7.130;2022-12-07T13:54:22;5.50;99.90
15617;DHT22;7908;51.688;7.130;2022-12-07T13:56:53;5.50;99.90
15617;DHT22;7908;51.688;7.130;2022-12-07T13:59:28;5.50;99.90
15617;DHT22;7908;51.688;7.130;2022-12-07T14:02:16;5.60;99.90
15617;DHT22;7908;51.688;7.130;2022-12-07T14:04:49;5.60;99.90
15617;DHT22;7908;51.688;7.130;2022-12-07T14:07:24;5.70;99.90
15617;DHT22;7908;51.688;7.130;2022-12-07T14:09:59;5.70;99.90
15617;DHT22;7908;51.688;7.130;2022-12-07T14:12:30;5.70;99.90
15617;DHT22;7908;51.688;7.130;2022-12-07T14:15:02;5.70;99.90
15617;DHT22;7908;51.688;7.130;2022-12-07T14:17:32;5.70;99.90
15617;DHT22;7908;51.688;7.130;2022-12-07T14:22:55;5.70;99.90
15617;DHT22;7908;51.688;7.130;2022-12-07T14:25:26;5.70;99.90
15617;DHT22;7908;51.688;7.130;2022-12-07T14:28:01;5.60;99.90
15617;DHT22;7908;51.688;7.130;2022-12-07T14:30:37;5.60;99.90
15617;DHT22;7908;51.688;7.130;2022-12-07T14:33:09;5.60;99.90
15617;DHT22;7908;51.688;7.130;2022-12-07T14:35:38;5.60;99.90
15617;DHT22;7908;51.688;7.130;2022-12-07T14:38:08;5.60;99.90
15617;DHT22;7908;51.688;7.130;2022-12-07T14:40:40;5.60;99.90
15617;DHT22;7908;51.688;7.130;2022-12-07T14:43:13;5.70;99.90
15617;DHT22;7908;51.688;7.130;2022-12-07T14:45:49;5.70;99.90
15617;DHT22;7908;51.688;7.130;2022-12-07T14:48:18;5.60;99.90
15617;DHT22;7908;51.688;7.130;2022-12-07T14:51:10;5.60;99.90
15617;DHT22;7908;51.688;7.130;2022-12-07T14:54:04;5.60;99.90
15617;DHT22;7908;51.688;7.130;2022-12-07T14:56:47;5.50;99.90
15617;DHT22;7908;51.688;7.130;2022-12-07T14:59:20;5.50;99.90
15617;DHT22;7908;51.688;7.130;2022-12-07T15:01:55;5.40;99.90
15617;DHT22;7908;51.688;7.130;2022-12-07T15:04:27;5.40;99.90
15617;DHT22;7908;51.688;7.130;2022-12-07T15:06:56;5.30;99.90
15617;DHT22;7908;51.688;7.130;2022-12-07T15:09:29;5.30;99.90
15617;DHT22;7908;51.688;7.130;2022-12-07T15:12:08;5.20;99.90
15617;DHT22;7908;51.688;7.130;2022-12-07T15:14:41;5.20;99.90
15617;DHT22;7908;51.688;7.130;2022-12-07T15:17:18;5.20;99.90
15617;DHT22;7908;51.688;7.130;2022-12-07T15:19:58;5.10;99.90
15617;DHT22;7908;51.688;7.130;2022-12-07T15:22:36;5.10;99.90
15617;DHT22;7908;51.688;7.130;2022-12-07T15:25:06;5.10;99.90
15617;DHT22;7908;51.688;7.130;2022-12-07T15:27:40;5.00;99.90
15617;DHT22;7908;51.688;7.130;2022-12-07T15:30:14;5.00;99.90
15617;DHT22;7908;51.688;7.130;2022-12-07T15:32:54;4.90;99.90
15617;DHT22;7908;51.688;7.130;2022-12-07T15:35:26;4.90;99.90
15617;DHT22;7908;51.688;7.130;2022-12-07T15:38:00;4.90;99.90
15617;DHT22;7908;51.688;7.130;2022-12-07T15:40:31;4.80;99.90
15617;DHT22;7908;51.688;7.130;2022-12-07T15:43:02;4.80;99.90
15617;DHT22;7908;51.688;7.130;2022-12-07T15:45:36;4.80;99.90
15617;DHT22;7908;51.688;7.130;2022-12-07T15:48:08;4.80;99.90
15617;DHT22;7908;51.688;7.130;2022-12-07T15:51:02;4.80;99.90
15617;DHT22;7908;51.688;7.130;2022-12-07T15:54:01;4.80;99.90
15617;DHT22;7908;51.688;7.130;2022-12-07T15:56:42;4.80;99.90
15617;DHT22;7908;51.688;7.130;2022-12-07T15:59:30;4.80;99.90
15617;DHT22;7908;51.688;7.130;2022-12-07T16:02:07;4.80;99.90
15617;DHT22;7908;51.688;7.130;2022-12-07T16:04:37;4.80;99.90
15617;DHT22;7908;51.688;7.130;2022-12-07T16:07:07;4.80;99.90
15617;DHT22;7908;51.688;7.130;2022-12-07T16:09:43;4.80;99.90
15617;DHT22;7908;51.688;7.130;2022-12-07T16:12:14;4.80;99.90
15617;DHT22;7908;51.688;7.130;2022-12-07T16:14:46;4.90;99.90
15617;DHT22;7908;51.688;7.130;2022-12-07T16:17:15;4.90;99.90
15617;DHT22;7908;51.688;7.130;2022-12-07T16:19:45;4.90;99.90
15617;DHT22;7908;51.688;7.130;2022-12-07T16:22:20;5.00;99.90
15617;DHT22;7908;51.688;7.130;2022-12-07T16:24:50;4.90;99.90
15617;DHT22;7908;51.688;7.130;2022-12-07T16:27:19;5.00;99.90
15617;DHT22;7908;51.688;7.130;2022-12-07T16:29:49;5.00;99.90
15617;DHT22;7908;51.688;7.130;2022-12-07T16:32:24;5.00;99.90
15617;DHT22;7908;51.688;7.130;2022-12-07T16:34:53;5.10;99.90
15617;DHT22;7908;51.688;7.130;2022-12-07T16:37:21;5.10;99.90
15617;DHT22;7908;51.688;7.130;2022-12-07T16:39:51;5.10;99.90
15617;DHT22;7908;51.688;7.130;2022-12-07T16:42:22;5.10;99.90
15617;DHT22;7908;51.688;7.130;2022-12-07T16:44:53;5.20;99.90
15617;DHT22;7908;51.688;7.130;2022-12-07T16:47:21;5.20;99.90
15617;DHT22;7908;51.688;7.130;2022-12-07T16:49:51;5.20;99.90
15617;DHT22;7908;51.688;7.130;2022-12-07T16:52:27;5.20;99.90
15617;DHT22;7908;51.688;7.130;2022-12-07T16:54:59;5.20;99.90
15617;DHT22;7908;51.688;7.130;2022-12-07T16:57:33;5.20;99.90
15617;DHT22;7908;51.688;7.130;2022-12-07T17:00:11;5.20;99.90
15617;DHT22;7908;51.688;7.130;2022-12-07T17:02:42;5.20;99.90
15617;DHT22;7908;51.688;7.130;2022-12-07T17:05:30;5.10;99.90
15617;DHT22;7908;51.688;7.130;2022-12-07T17:08:02;5.10;99.90
15617;DHT22;7908;51.688;7.130;2022-12-07T17:10:41;5.10;99.90
15617;DHT22;7908;51.688;7.130;2022-12-07T17:13:11;5.10;99.90
15617;DHT22;7908;51.688;7.130;2022-12-07T17:16:03;5.00;99.90